Historique des stations

Station météo de Tauxigny

Altitude de la station : 90 m







Données météorologiques pour le 05/12/2021
Date
Heure
Températures Humidité Point de rosée Vitesse
du vent
Direction Rafales Windchill Pression Pluviométrie
Cumul
Date
Heure
Températures Humidité Point de rosée Vitesse
du vent
Direction Rafales Windchill Pression Pluviométrie
Cumul
05/12/2021 13:167.7 °C83 %5.0 °C13 km/hONO31 km/h5.41009 hPa0.3 mm
05/12/2021 12:566.9 °C86 %4.7 °C13 km/hO27 km/h4.41009 hPa0.3 mm
05/12/2021 12:466.6 °C86 %4.4 °C15 km/hO27 km/h3.71009 hPa0.3 mm
05/12/2021 12:266.6 °C85 %4.2 °C16 km/hOSO31 km/h3.41010 hPa0.3 mm
05/12/2021 12:166.9 °C84 %4.4 °C16 km/hNO35 km/h3.81010 hPa0.3 mm
05/12/2021 11:566.9 °C86 %4.7 °C15 km/hO31 km/h4.11010 hPa0.3 mm
05/12/2021 11:466.7 °C86 %4.5 °C11 km/hONO26 km/h4.41010 hPa0.3 mm
05/12/2021 11:266.0 °C88 %4.2 °C13 km/hOSO26 km/h3.31010 hPa0.3 mm
05/12/2021 11:165.8 °C89 %4.1 °C11 km/hO24 km/h3.31010 hPa0.3 mm
05/12/2021 10:565.2 °C90 %3.7 °C13 km/hO21 km/h2.41010 hPa0.3 mm
05/12/2021 10:464.9 °C91 %3.5 °C15 km/hOSO26 km/h1.71010 hPa0.3 mm
05/12/2021 10:264.2 °C92 %3.0 °C11 km/hO23 km/h1.51009 hPa0.3 mm
05/12/2021 10:163.8 °C93 %2.8 °C11 km/hO21 km/h1.01010 hPa0.3 mm
05/12/2021 09:563.4 °C94 %2.5 °C13 km/hO23 km/h0.21009 hPa0.3 mm
05/12/2021 09:463.1 °C94 %2.2 °C11 km/hONO23 km/h0.11009 hPa0.3 mm
05/12/2021 09:262.7 °C95 %2.0 °C11 km/hOSO19 km/h-0.31009 hPa0.3 mm
05/12/2021 09:162.7 °C95 %2.0 °C11 km/hOSO18 km/h-0.31009 hPa0.3 mm
05/12/2021 08:562.4 °C95 %1.7 °C10 km/hO21 km/h-0.31009 hPa0.3 mm
05/12/2021 08:462.2 °C95 %1.5 °C10 km/hOSO23 km/h-0.61009 hPa0.3 mm
05/12/2021 08:262.2 °C96 %1.6 °C10 km/hO18 km/h-0.61009 hPa0.3 mm
05/12/2021 08:162.2 °C96 %1.6 °C10 km/hO16 km/h-0.61009 hPa0.3 mm
05/12/2021 07:562.0 °C96 %1.4 °C8 km/hO15 km/h-0.41009 hPa0.3 mm
05/12/2021 07:462.1 °C96 %1.5 °C8 km/hO16 km/h-0.31008 hPa0.3 mm
05/12/2021 07:261.9 °C96 %1.3 °C8 km/hO15 km/h-0.51008 hPa0.3 mm
05/12/2021 07:161.8 °C96 %1.2 °C6 km/hO18 km/h-0.11008 hPa0.3 mm
05/12/2021 06:561.8 °C95 %1.1 °C6 km/hOSO11 km/h-0.11008 hPa0.3 mm
05/12/2021 06:461.9 °C95 %1.2 °C6 km/hO10 km/h0.11008 hPa0.3 mm
05/12/2021 06:262.2 °C95 %1.5 °C8 km/hOSO13 km/h-0.11008 hPa0.3 mm
05/12/2021 06:162.3 °C95 %1.6 °C8 km/hOSO15 km/h-0.11008 hPa0.3 mm
05/12/2021 05:562.4 °C95 %1.7 °C8 km/hOSO11 km/h0.11008 hPa0.3 mm
05/12/2021 05:462.5 °C95 %1.8 °C8 km/hOSO13 km/h0.21008 hPa0.3 mm
05/12/2021 05:262.6 °C96 %2.0 °C8 km/hO13 km/h0.31008 hPa0.3 mm
05/12/2021 05:162.6 °C96 %2.0 °C8 km/hO15 km/h0.31008 hPa0.3 mm
05/12/2021 04:562.7 °C95 %2.0 °C8 km/hOSO15 km/h0.41008 hPa0.3 mm
05/12/2021 04:462.7 °C95 %2.0 °C8 km/hOSO13 km/h0.41008 hPa0.3 mm
05/12/2021 04:263.2 °C95 %2.4 °C8 km/hOSO15 km/h1.01007 hPa0.3 mm
05/12/2021 04:163.4 °C95 %2.7 °C10 km/hO16 km/h0.81008 hPa0.3 mm
05/12/2021 03:563.6 °C95 %2.8 °C10 km/hOSO18 km/h1.11008 hPa0.3 mm
05/12/2021 03:463.6 °C95 %2.9 °C8 km/hO16 km/h1.51008 hPa0.3 mm
05/12/2021 03:263.6 °C95 %2.9 °C10 km/hOSO18 km/h1.11008 hPa0.3 mm
05/12/2021 03:163.7 °C95 %2.9 °C10 km/hO19 km/h1.21008 hPa0.3 mm
05/12/2021 02:563.6 °C95 %2.9 °C11 km/hO19 km/h0.71008 hPa0.3 mm
05/12/2021 02:463.6 °C95 %2.8 °C10 km/hSSO18 km/h1.11008 hPa0.3 mm
05/12/2021 02:263.4 °C96 %2.8 °C10 km/hSSO21 km/h0.81008 hPa0.3 mm
05/12/2021 02:163.2 °C96 %2.6 °C8 km/hSO21 km/h1.11008 hPa0.3 mm
05/12/2021 01:563.0 °C95 %2.3 °C6 km/hSSO13 km/h1.31008 hPa0.3 mm
05/12/2021 01:462.9 °C95 %2.2 °C6 km/hSSO15 km/h1.21008 hPa0.3 mm
05/12/2021 01:263.2 °C95 %2.4 °C8 km/hO16 km/h1.01009 hPa0.3 mm
05/12/2021 01:163.2 °C95 %2.4 °C8 km/hO15 km/h1.01009 hPa0.3 mm
05/12/2021 01:063.2 °C95 %2.5 °C10 km/hSSO18 km/h0.61009 hPa0.3 mm
05/12/2021 00:463.1 °C96 %2.5 °C8 km/hOSO16 km/h0.91009 hPa0.3 mm
05/12/2021 00:262.9 °C96 %2.4 °C6 km/hSSO15 km/h1.21009 hPa0.0 mm
05/12/2021 00:162.9 °C96 %2.4 °C6 km/hSSO13 km/h1.21009 hPa0.0 mm


Minima :

Température : 1.8 °C
Humidité : 83 %
Point de rosée : 1.1 °C
Vent moyen : 6 km/h
Windchill : -0.6
Pression atm. : 1007 hPa
Maxima :

Température : 7.7 °C
Humidité : 96 %
Point de rosée : 5.0 °C
Vent moyen : 16 km/h
Windchill : 5.4
Pression atm. : 1010 hPa
Rafales max : 35 km/h
Cumul de pluie sur 24H : 0.3 mm

Tauxigny est une commune du département Indre-et-Loire (37).
La station météorologique du réseau de l'association la plus proche de Tauxigny est celle de Luçay-le-Libre



Icône Facebook Association Météo Centre Icône Twitter Association Météo Centre Icône Chaîne Youtube Association Météo Centre Icône contact Association Météo Centre Icône Insta Association Météo Centre